Time;durP1;ratioP1;P1;durP2;ratioP2;P2;SDS_P1;SDS_P2;PMS_P1;PMS_P2;Temp;Humidity;BMP_temperature;BMP_pressure;BME280_temperature;BME280_humidity;BME280_pressure;Samples;Min_cycle;Max_cycle;Signal;HPM_P1;HPM_P2
2022/10/09 00:03:02;;;;;;;4.10;1.90;;;;;;;11.61;89.93;99328.80;215733;1277;25118;-73
2022/10/09 00:08:04;;;;;;;3.80;2.20;;;;;;;11.57;89.95;99326.42;215581;1307;24259;-74
2022/10/09 00:13:06;;;;;;;4.80;2.20;;;;;;;11.54;90.04;99330.96;215847;1277;22470;-73
2022/10/09 00:18:09;;;;;;;6.00;2.20;;;;;;;11.47;90.10;99330.37;215633;1285;22615;-74
2022/10/09 00:23:16;;;;;;;3.60;2.30;;;;;;;11.40;90.17;99331.27;215903;1277;23940;-73
2022/10/09 00:28:19;;;;;;;8.00;2.70;;;;;;;11.29;90.34;99326.95;215789;1303;23891;-74
2022/10/09 00:33:21;;;;;;;9.70;2.90;;;;;;;11.18;90.40;99336.80;216055;1279;22630;-74
2022/10/09 00:38:22;;;;;;;3.40;2.50;;;;;;;11.03;90.25;99338.81;215711;1303;22593;-72
2022/10/09 00:43:50;;;;;;;6.30;2.50;;;;;;;10.89;90.56;99341.90;215727;1280;22457;-73
2022/10/09 00:49:18;;;;;;;4.80;2.30;;;;;;;10.75;90.84;99346.31;215845;1302;22598;-74
2022/10/09 00:54:23;;;;;;;6.20;2.40;;;;;;;10.63;90.86;99352.52;215757;1278;22501;-74
2022/10/09 00:59:26;;;;;;;5.20;2.30;;;;;;;10.55;91.14;99350.67;215794;1303;22489;-73
2022/10/09 01:04:32;;;;;;;5.40;2.90;;;;;;;10.44;91.14;99350.92;215951;1288;22596;-73
2022/10/09 01:09:49;;;;;;;6.00;2.60;;;;;;;10.33;91.37;99352.88;215739;1303;22472;-74
2022/10/09 01:15:15;;;;;;;4.40;2.90;;;;;;;10.20;91.49;99356.65;215787;1278;24250;-74
2022/10/09 01:20:26;;;;;;;7.90;3.10;;;;;;;10.07;91.79;99364.59;215775;1303;23902;-75
2022/10/09 01:25:35;;;;;;;6.70;3.00;;;;;;;9.99;91.93;99369.09;215880;1278;25373;-73
2022/10/09 01:30:37;;;;;;;4.20;3.00;;;;;;;9.93;92.08;99379.02;215735;1294;22602;-73
2022/10/09 01:35:40;;;;;;;3.70;2.90;;;;;;;9.87;92.33;99381.38;215653;1274;22612;-73
2022/10/09 01:40:42;;;;;;;5.90;2.80;;;;;;;9.78;92.70;99380.62;215862;1302;24298;-73
2022/10/09 01:45:46;;;;;;;9.20;3.40;;;;;;;9.66;92.72;99392.55;215504;1275;25337;-74
2022/10/09 01:50:55;;;;;;;8.20;3.30;;;;;;;9.54;92.74;99395.59;215831;1302;24428;-74
2022/10/09 01:56:10;;;;;;;3.90;2.90;;;;;;;9.42;92.95;99403.66;215786;1273;22502;-74
2022/10/09 02:01:15;;;;;;;5.60;2.80;;;;;;;9.29;92.98;99405.66;215415;1302;22521;-73
2022/10/09 02:06:18;;;;;;;3.10;2.60;;;;;;;9.17;93.30;99412.95;215753;1277;98801;-73
2022/10/09 02:11:22;;;;;;;4.80;2.30;;;;;;;9.07;93.49;99416.18;215849;1303;26424;-73
2022/10/09 02:16:42;;;;;;;4.60;2.90;;;;;;;8.98;93.66;99420.48;215820;1302;24495;-72
2022/10/09 02:21:50;;;;;;;5.00;3.00;;;;;;;8.88;93.77;99428.67;215667;1298;22930;-73
2022/10/09 02:26:57;;;;;;;2.80;2.10;;;;;;;8.79;93.99;99439.37;215663;1289;24312;-73
2022/10/09 02:31:59;;;;;;;2.80;2.20;;;;;;;8.69;94.23;99451.98;215624;1302;23915;-73
2022/10/09 02:37:01;;;;;;;5.40;2.60;;;;;;;8.60;94.33;99458.29;215733;1288;22603;-73
2022/10/09 02:42:03;;;;;;;3.80;2.20;;;;;;;8.52;94.49;99452.63;215794;1303;24366;-73
2022/10/09 02:47:05;;;;;;;6.50;2.60;;;;;;;8.41;94.64;99450.41;215867;1280;22509;-73
2022/10/09 02:52:06;;;;;;;5.60;2.40;;;;;;;8.31;94.72;99457.29;215821;1302;22499;-73
2022/10/09 02:57:08;;;;;;;7.60;2.90;;;;;;;8.20;94.92;99461.99;215447;1280;23245;-73
2022/10/09 03:02:10;;;;;;;6.90;2.70;;;;;;;8.10;95.16;99466.24;215790;1302;22509;-74
2022/10/09 03:07:12;;;;;;;5.50;2.80;;;;;;;8.01;95.30;99472.69;215929;1279;22465;-73
2022/10/09 03:12:19;;;;;;;4.40;2.80;;;;;;;7.93;95.42;99475.17;216012;1296;22568;-73
2022/10/09 03:17:21;;;;;;;4.80;2.70;;;;;;;7.83;95.61;99477.91;215844;1302;24263;-73
2022/10/09 03:22:23;;;;;;;5.60;2.50;;;;;;;7.78;95.85;99484.00;215682;1280;24312;-73
2022/10/09 03:27:25;;;;;;;8.90;2.80;;;;;;;7.74;95.99;99487.64;215569;1287;24395;-74
2022/10/09 03:32:26;;;;;;;7.10;2.70;;;;;;;7.69;95.94;99490.48;215692;1280;22525;-73
2022/10/09 03:37:28;;;;;;;6.60;2.60;;;;;;;7.62;95.95;99489.71;215426;1287;22469;-73
2022/10/09 03:42:30;;;;;;;4.60;2.60;;;;;;;7.54;96.11;99501.69;215750;1290;22478;-72
2022/10/09 03:47:32;;;;;;;6.60;2.40;;;;;;;7.48;96.35;99506.20;215756;1302;22518;-73
2022/10/09 03:52:35;;;;;;;5.70;2.90;;;;;;;7.42;96.31;99503.35;215766;1280;22936;-74
2022/10/09 03:57:37;;;;;;;8.90;3.70;;;;;;;7.33;96.26;99509.34;215757;1285;22485;-73
2022/10/09 04:02:39;;;;;;;4.30;2.50;;;;;;;7.24;96.51;99518.61;215588;1280;24250;-73
2022/10/09 04:07:41;;;;;;;7.60;3.20;;;;;;;7.16;96.62;99520.69;215725;1288;24334;-74
2022/10/09 04:12:42;;;;;;;4.70;2.90;;;;;;;7.10;96.75;99523.11;215704;1277;22513;-73
2022/10/09 04:17:44;;;;;;;4.40;2.60;;;;;;;7.04;96.87;99526.77;215651;1279;22481;-74
2022/10/09 04:22:46;;;;;;;3.50;2.60;;;;;;;7.00;97.08;99527.67;215798;1288;24387;-73
2022/10/09 04:27:48;;;;;;;7.00;3.00;;;;;;;6.96;97.37;99530.40;215768;1302;22465;-74
2022/10/09 04:32:50;;;;;;;3.60;2.30;;;;;;;6.92;97.33;99537.63;215692;1302;22471;-72
2022/10/09 04:37:52;;;;;;;4.90;2.80;;;;;;;6.85;97.11;99544.63;215560;1282;22485;-73
2022/10/09 04:42:55;;;;;;;5.90;3.40;;;;;;;6.78;97.46;99550.60;215875;1302;22528;-75
2022/10/09 04:47:57;;;;;;;5.50;3.40;;;;;;;6.76;97.71;99562.34;215689;1302;22454;-73
2022/10/09 04:52:58;;;;;;;5.90;3.20;;;;;;;6.79;97.86;99568.73;215784;1302;22478;-73
2022/10/09 04:58:00;;;;;;;4.60;2.70;;;;;;;6.89;98.11;99575.78;215834;1288;22622;-73
2022/10/09 05:03:02;;;;;;;5.60;3.20;;;;;;;7.00;98.38;99579.84;215666;1280;22477;-74
2022/10/09 05:08:03;;;;;;;5.70;3.20;;;;;;;7.12;98.48;99576.96;215511;1287;22469;-73
2022/10/09 05:13:05;;;;;;;7.10;2.60;;;;;;;7.19;98.62;99578.45;215790;1274;23069;-74
2022/10/09 05:18:07;;;;;;;6.40;2.90;;;;;;;7.21;98.55;99588.65;215871;1280;22522;-76
2022/10/09 05:23:08;;;;;;;4.60;3.30;;;;;;;7.18;98.43;99589.73;215803;1277;22616;-73
2022/10/09 05:28:10;;;;;;;4.70;3.00;;;;;;;7.17;98.57;99592.06;215564;1280;22474;-73
2022/10/09 05:33:12;;;;;;;4.60;3.10;;;;;;;7.15;98.54;99595.30;215888;1302;25312;-73
2022/10/09 05:38:14;;;;;;;8.30;3.30;;;;;;;7.13;98.71;99603.36;215658;1287;22513;-73
2022/10/09 05:43:15;;;;;;;6.20;4.00;;;;;;;7.12;98.71;99616.45;215543;1274;22478;-74
2022/10/09 05:48:18;;;;;;;6.10;4.00;;;;;;;7.13;98.70;99620.09;215828;1280;22724;-73
2022/10/09 05:53:19;;;;;;;13.40;7.30;;;;;;;7.13;98.86;99627.65;215568;1278;24249;-74
2022/10/09 05:58:21;;;;;;;11.70;5.90;;;;;;;7.14;98.90;99629.66;215602;1302;24110;-74
2022/10/09 06:03:23;;;;;;;9.20;5.00;;;;;;;7.17;99.14;99634.82;215744;1274;25503;-73
2022/10/09 06:08:24;;;;;;;9.40;5.30;;;;;;;7.24;99.31;99637.99;215890;1295;22462;-74
2022/10/09 06:13:26;;;;;;;9.20;4.70;;;;;;;7.32;99.64;99645.91;215846;1280;24061;-73
2022/10/09 06:18:28;;;;;;;7.20;3.70;;;;;;;7.42;99.70;99650.13;215661;1302;25845;-73
2022/10/09 06:23:30;;;;;;;9.50;3.90;;;;;;;7.52;99.47;99652.45;215914;1280;22552;-73
2022/10/09 06:28:34;;;;;;;11.40;4.60;;;;;;;7.62;99.67;99655.04;215573;1280;22651;-73
2022/10/09 06:33:38;;;;;;;7.20;3.70;;;;;;;7.75;99.60;99659.46;215764;1282;22408;-74
2022/10/09 06:38:41;;;;;;;6.50;3.10;;;;;;;7.86;99.32;99666.44;215655;1282;22534;-73
2022/10/09 06:43:49;;;;;;;8.90;3.90;;;;;;;7.95;99.06;99670.54;215803;1302;22480;-73
2022/10/09 06:48:51;;;;;;;7.60;4.10;;;;;;;8.11;98.96;99682.41;215649;1302;24298;-73
2022/10/09 06:53:55;;;;;;;8.30;4.30;;;;;;;8.32;98.86;99689.54;215534;1287;23181;-73
2022/10/09 06:59:05;;;;;;;7.40;3.80;;;;;;;8.59;98.62;99691.59;215812;1271;22542;-73
2022/10/09 07:04:12;;;;;;;3.70;2.50;;;;;;;8.89;98.42;99696.72;215749;1280;24251;-72
2022/10/09 07:09:14;;;;;;;5.60;2.40;;;;;;;9.23;98.23;99702.50;215713;1301;22475;-75
2022/10/09 07:14:16;;;;;;;5.30;2.20;;;;;;;9.55;97.41;99705.22;215620;1280;22540;-73
2022/10/09 07:19:18;;;;;;;3.30;1.80;;;;;;;9.80;96.70;99720.93;215729;1303;23889;-73
2022/10/09 07:24:20;;;;;;;5.50;2.00;;;;;;;10.00;96.05;99723.86;215770;1274;24233;-74
2022/10/09 07:29:22;;;;;;;4.70;2.10;;;;;;;10.23;95.81;99726.20;215532;1292;24058;-73
2022/10/09 07:34:23;;;;;;;4.20;1.70;;;;;;;10.46;95.40;99723.80;215651;1280;22483;-74
2022/10/09 07:39:25;;;;;;;4.80;1.70;;;;;;;10.68;95.04;99729.57;215640;1282;24250;-73
2022/10/09 07:44:27;;;;;;;6.10;2.00;;;;;;;10.88;94.61;99734.75;215813;1274;23954;-73
2022/10/09 07:49:29;;;;;;;5.30;1.70;;;;;;;11.06;94.16;99733.37;215745;1302;24297;-74
2022/10/09 07:54:30;;;;;;;6.60;1.90;;;;;;;11.33;93.82;99735.45;215714;1288;24278;-73
2022/10/09 07:59:32;;;;;;;5.20;1.70;;;;;;;11.56;93.12;99735.80;215755;1291;22612;-73
2022/10/09 08:04:36;;;;;;;3.60;1.60;;;;;;;11.62;92.09;99732.73;215949;1280;22464;-73
2022/10/09 08:09:38;;;;;;;4.90;1.50;;;;;;;11.58;91.90;99733.05;215808;1302;22897;-74
2022/10/09 08:14:40;;;;;;;5.60;1.60;;;;;;;11.53;91.26;99734.41;215822;1280;22525;-73
2022/10/09 08:19:41;;;;;;;2.90;1.40;;;;;;;11.51;91.12;99742.98;215672;1302;22455;-73
2022/10/09 08:24:43;;;;;;;5.50;1.50;;;;;;;11.48;90.75;99750.25;215750;1274;22472;-73
2022/10/09 08:29:45;;;;;;;3.10;1.50;;;;;;;11.52;90.87;99751.74;215726;1302;22552;-73
2022/10/09 08:34:47;;;;;;;5.80;1.80;;;;;;;11.64;90.80;99755.43;215722;1280;22609;-73
2022/10/09 08:39:48;;;;;;;5.60;1.60;;;;;;;11.83;90.61;99760.11;215813;1302;22592;-73
2022/10/09 08:44:50;;;;;;;6.60;1.70;;;;;;;11.93;90.16;99764.45;215753;1280;22471;-72
2022/10/09 08:50:22;;;;;;;6.00;1.80;;;;;;;12.23;90.21;99765.60;215865;1303;22605;-73
2022/10/09 08:55:31;;;;;;;3.80;1.30;;;;;;;12.44;89.44;99766.11;215728;1275;24249;-74
2022/10/09 09:00:42;;;;;;;4.90;1.80;;;;;;;12.36;88.50;99769.59;215919;1302;22514;-73
2022/10/09 09:06:03;;;;;;;3.00;1.50;;;;;;;12.45;88.06;99769.05;215612;1272;25305;-74
2022/10/09 09:11:46;;;;;;;2.70;1.30;;;;;;;12.60;87.44;99760.48;215634;1302;22527;-75
2022/10/09 09:17:03;;;;;;;4.10;1.90;;;;;;;12.69;86.85;99764.03;215739;1280;24205;-75
2022/10/09 09:22:12;;;;;;;1.60;1.20;;;;;;;12.76;86.44;99762.98;215696;1302;23717;-75
2022/10/09 09:27:18;;;;;;;5.10;1.50;;;;;;;12.87;86.23;99764.09;215902;1274;25314;-76
2022/10/09 09:32:24;;;;;;;4.80;1.60;;;;;;;13.10;85.78;99765.65;215636;1274;24270;-74
2022/10/09 09:37:25;;;;;;;2.60;1.40;;;;;;;13.40;85.40;99756.66;215505;1281;24308;-74
2022/10/09 09:42:28;;;;;;;2.80;1.20;;;;;;;13.54;83.91;99760.38;215613;1297;24833;-75
2022/10/09 09:47:37;;;;;;;5.90;1.30;;;;;;;13.57;83.18;99759.52;215664;1282;22551;-74
2022/10/09 09:52:44;;;;;;;3.90;1.20;;;;;;;13.85;82.97;99760.77;215750;1272;22711;-74
2022/10/09 09:57:46;;;;;;;2.80;1.30;;;;;;;14.21;82.47;99761.48;215350;1302;23225;-74
2022/10/09 10:03:00;;;;;;;5.50;2.30;;;;;;;14.20;81.09;99771.94;215641;1282;26329;-75
2022/10/09 10:08:12;;;;;;;2.90;1.90;;;;;;;14.06;80.67;99772.70;215812;1302;22639;-76
2022/10/09 10:13:18;;;;;;;2.30;1.30;;;;;;;13.97;79.89;99770.64;216005;1294;25235;-74
2022/10/09 10:18:23;;;;;;;3.40;1.30;;;;;;;14.04;79.42;99761.89;215751;1302;25281;-75
2022/10/09 10:23:49;;;;;;;2.90;1.40;;;;;;;14.14;79.20;99759.63;215541;1302;23257;-74
2022/10/09 10:28:58;;;;;;;4.20;1.90;;;;;;;14.28;78.92;99761.40;215733;1302;24239;-76
2022/10/09 10:34:02;;;;;;;15.50;5.90;;;;;;;14.03;77.93;99766.85;215761;1272;22506;-75
2022/10/09 10:39:13;;;;;;;5.30;2.30;;;;;;;13.81;77.81;99768.86;215837;1302;22540;-74
2022/10/09 10:44:24;;;;;;;3.40;1.70;;;;;;;13.79;77.88;99762.22;215581;1275;22476;-75
2022/10/09 10:49:26;;;;;;;2.80;1.40;;;;;;;13.88;77.64;99768.48;215691;1284;22602;-74
2022/10/09 10:54:41;;;;;;;4.10;3.20;;;;;;;14.03;76.80;99767.08;215915;1295;23738;-74
2022/10/09 11:00:02;;;;;;;1.80;1.40;;;;;;;14.27;76.41;99763.23;215640;1288;24338;-75
2022/10/09 11:05:25;;;;;;;2.40;1.20;;;;;;;14.36;75.10;99768.40;215832;1274;22522;-74
2022/10/09 11:10:37;;;;;;;1.50;1.20;;;;;;;14.25;74.14;99767.09;215732;1302;22987;-74
2022/10/09 11:16:17;;;;;;;2.60;1.10;;;;;;;14.22;74.18;99766.20;215844;1288;24835;-74
2022/10/09 11:21:28;;;;;;;3.00;1.20;;;;;;;14.24;73.93;99761.77;215808;1274;22565;-74
2022/10/09 11:26:56;;;;;;;3.10;1.30;;;;;;;14.32;73.65;99757.30;215791;1280;22485;-75
2022/10/09 11:32:18;;;;;;;1.70;1.00;;;;;;;14.51;73.75;99754.73;215685;1302;25458;-75
2022/10/09 11:37:25;;;;;;;2.70;1.10;;;;;;;14.65;72.78;99752.38;215630;1288;26730;-75
2022/10/09 11:42:27;;;;;;;1.10;1.00;;;;;;;14.68;72.11;99748.02;215765;1280;22870;-74
2022/10/09 11:47:32;;;;;;;1.20;0.80;;;;;;;14.53;71.52;99745.55;215732;1281;24364;-74
2022/10/09 11:53:05;;;;;;;2.20;1.00;;;;;;;14.50;71.35;99741.10;216039;1280;22596;-74
2022/10/09 11:58:13;;;;;;;2.10;1.20;;;;;;;14.56;71.14;99731.87;215755;1280;22553;-74
2022/10/09 12:03:37;;;;;;;3.70;1.10;;;;;;;14.39;70.92;99725.73;215966;1277;23062;-74
2022/10/09 12:08:53;;;;;;;2.30;1.20;;;;;;;14.22;70.37;99725.19;215748;1302;22466;-75
2022/10/09 12:13:58;;;;;;;3.00;1.40;;;;;;;14.07;70.53;99712.51;215740;1281;22508;-75
2022/10/09 12:19:12;;;;;;;2.40;1.00;;;;;;;14.15;70.66;99712.83;215564;1284;24188;-74
2022/10/09 12:24:16;;;;;;;3.10;1.20;;;;;;;14.34;70.42;99712.11;215747;1281;24491;-75
2022/10/09 12:29:46;;;;;;;2.20;1.10;;;;;;;14.32;69.97;99713.79;215761;1288;22589;-74
2022/10/09 12:34:49;;;;;;;4.00;1.00;;;;;;;14.17;69.82;99713.02;215644;1275;22477;-74
2022/10/09 12:39:51;;;;;;;2.80;0.90;;;;;;;14.17;70.01;99713.14;215603;1282;22597;-74
2022/10/09 12:44:54;;;;;;;2.80;1.10;;;;;;;14.32;69.81;99708.14;215878;1282;25427;-75
2022/10/09 12:49:58;;;;;;;1.30;0.70;;;;;;;14.49;68.85;99708.65;216029;1302;22637;-75
2022/10/09 12:55:01;;;;;;;3.90;0.80;;;;;;;14.68;68.47;99706.31;215625;1274;24227;-75
2022/10/09 13:00:04;;;;;;;2.60;0.90;;;;;;;14.95;67.94;99702.50;215608;1282;22432;-75
2022/10/09 13:05:06;;;;;;;2.80;1.00;;;;;;;15.23;67.23;99698.91;215692;1280;22593;-75
2022/10/09 13:10:17;;;;;;;3.30;0.70;;;;;;;15.37;66.89;99699.74;215657;1302;22467;-73
2022/10/09 13:15:35;;;;;;;2.90;1.00;;;;;;;15.37;64.82;99703.74;215750;1286;25084;-74
2022/10/09 13:20:37;;;;;;;2.20;1.00;;;;;;;15.31;58.32;99703.14;215504;1274;24395;-74
2022/10/09 13:25:41;;;;;;;5.50;1.00;;;;;;;15.20;60.77;99690.86;215690;1288;22462;-74
2022/10/09 13:30:43;;;;;;;1.50;0.80;;;;;;;15.32;64.16;99691.84;215680;1288;22541;-74
2022/10/09 13:35:45;;;;;;;1.00;1.00;;;;;;;15.54;64.48;99684.52;215643;1274;25285;-75
2022/10/09 13:40:47;;;;;;;2.00;0.80;;;;;;;15.62;64.29;99680.39;215489;1291;22488;-75
2022/10/09 13:45:49;;;;;;;1.00;0.40;;;;;;;15.60;63.50;99685.13;215683;1282;24315;-73
2022/10/09 13:50:51;;;;;;;1.30;0.80;;;;;;;15.38;62.66;99682.49;215828;1277;23774;-73
2022/10/09 13:55:53;;;;;;;3.00;1.10;;;;;;;15.02;62.80;99679.67;215809;1281;22478;-74
2022/10/09 14:01:02;;;;;;;4.30;0.80;;;;;;;14.73;63.30;99676.52;215609;1302;24118;-74
2022/10/09 14:06:04;;;;;;;1.90;1.80;;;;;;;14.50;63.55;99671.65;215645;1281;96836;-74
2022/10/09 14:11:06;;;;;;;11.40;2.70;;;;;;;14.38;63.82;99671.08;215626;1282;25224;-74
2022/10/09 14:16:09;;;;;;;2.40;0.90;;;;;;;14.20;63.87;99669.48;215680;1282;22924;-75
2022/10/09 14:21:13;;;;;;;2.80;1.40;;;;;;;14.02;64.20;99664.62;215823;1302;23149;-74
2022/10/09 14:26:16;;;;;;;2.60;1.20;;;;;;;13.85;65.38;99664.02;215557;1285;22796;-75
2022/10/09 14:31:18;;;;;;;3.40;1.00;;;;;;;13.67;66.03;99662.06;215557;1277;25298;-75
2022/10/09 14:36:20;;;;;;;1.70;1.00;;;;;;;13.50;66.44;99649.99;215562;1277;23903;-75
2022/10/09 14:41:22;;;;;;;1.70;0.70;;;;;;;13.35;66.60;99648.95;215811;1279;25299;-72
2022/10/09 14:46:25;;;;;;;4.50;1.60;;;;;;;13.23;67.13;99645.17;215894;1280;24301;-73
2022/10/09 14:51:27;;;;;;;3.10;1.60;;;;;;;13.11;67.73;99637.54;215980;1295;22562;-74
2022/10/09 14:56:34;;;;;;;1.90;1.00;;;;;;;13.02;67.98;99632.14;215763;1281;22712;-74
2022/10/09 15:01:35;;;;;;;2.60;1.00;;;;;;;12.96;68.04;99629.08;215639;1288;22508;-74
2022/10/09 15:06:37;;;;;;;2.10;1.00;;;;;;;12.90;68.02;99622.13;215823;1281;23204;-74
2022/10/09 15:11:39;;;;;;;3.10;1.10;;;;;;;12.83;68.31;99621.71;215820;1281;22583;-73
2022/10/09 15:16:41;;;;;;;2.50;1.20;;;;;;;12.73;68.59;99622.07;215620;1281;23112;-73
2022/10/09 15:21:42;;;;;;;2.30;1.30;;;;;;;12.62;68.85;99619.58;215680;1290;23746;-74
2022/10/09 15:26:44;;;;;;;3.90;1.30;;;;;;;12.50;69.07;99623.64;215640;1282;23053;-74
2022/10/09 15:31:50;;;;;;;2.30;1.60;;;;;;;12.36;69.34;99618.73;215846;1302;23755;-75
2022/10/09 15:36:51;;;;;;;3.80;1.40;;;;;;;12.22;69.54;99618.68;215711;1282;25249;-74
2022/10/09 15:41:53;;;;;;;2.10;1.70;;;;;;;12.06;69.77;99610.23;215634;1302;23737;-74
2022/10/09 15:46:55;;;;;;;5.20;2.70;;;;;;;11.91;70.06;99612.07;215597;1279;22628;-75
2022/10/09 15:51:57;;;;;;;2.60;1.80;;;;;;;11.73;70.49;99610.04;215594;1281;23728;-74
2022/10/09 15:56:58;;;;;;;11.40;2.30;;;;;;;11.55;70.81;99616.55;215605;1282;22473;-74
2022/10/09 16:02:00;;;;;;;11.30;4.10;;;;;;;11.37;71.32;99617.84;215509;1280;22592;-73
2022/10/09 16:07:02;;;;;;;10.40;5.00;;;;;;;11.19;71.73;99619.17;215637;1281;22481;-74
2022/10/09 16:12:04;;;;;;;10.70;5.90;;;;;;;11.00;72.12;99615.34;215825;1303;22462;-74
2022/10/09 16:17:06;;;;;;;16.60;7.80;;;;;;;10.82;72.61;99618.58;215742;1282;23772;-74
2022/10/09 16:22:12;;;;;;;11.20;5.80;;;;;;;10.63;73.08;99623.73;215648;1279;22446;-75
2022/10/09 16:27:13;;;;;;;13.60;5.70;;;;;;;10.46;73.75;99628.11;215760;1282;22473;-74
2022/10/09 16:32:15;;;;;;;8.30;4.10;;;;;;;10.29;74.40;99626.19;215608;1303;22919;-75
2022/10/09 16:37:17;;;;;;;6.90;3.40;;;;;;;10.12;75.01;99628.88;215769;1303;24020;-73
2022/10/09 16:42:19;;;;;;;8.50;2.60;;;;;;;9.96;75.29;99628.94;215754;1282;22458;-74
2022/10/09 16:47:21;;;;;;;7.80;2.70;;;;;;;9.82;75.30;99632.15;215688;1289;22494;-74
2022/10/09 16:52:22;;;;;;;6.90;2.70;;;;;;;9.67;75.48;99632.09;215709;1285;22488;-74
2022/10/09 16:57:24;;;;;;;2.70;1.90;;;;;;;9.54;75.93;99633.44;215694;1288;24264;-75
2022/10/09 17:02:27;;;;;;;5.00;2.30;;;;;;;9.41;76.06;99633.69;215700;1288;22504;-74
2022/10/09 17:07:29;;;;;;;5.30;2.60;;;;;;;9.29;76.46;99635.70;215797;1302;23311;-73
2022/10/09 17:12:31;;;;;;;6.80;3.80;;;;;;;9.16;76.93;99634.23;215745;1288;23039;-73
2022/10/09 17:17:32;;;;;;;5.60;3.90;;;;;;;9.04;77.05;99635.55;215526;1288;22465;-74
2022/10/09 17:22:34;;;;;;;8.30;5.00;;;;;;;8.93;77.37;99640.11;215702;1282;22472;-74
2022/10/09 17:27:36;;;;;;;11.30;5.70;;;;;;;8.81;77.66;99643.17;215664;1285;22501;-74
2022/10/09 17:32:38;;;;;;;10.80;5.80;;;;;;;8.70;78.03;99645.11;215795;1280;24819;-74
2022/10/09 17:37:40;;;;;;;11.60;6.70;;;;;;;8.60;78.24;99644.77;215625;1277;22698;-73
2022/10/09 17:42:41;;;;;;;8.40;4.90;;;;;;;8.49;78.61;99644.56;215607;1282;22461;-74
2022/10/09 17:47:43;;;;;;;13.40;5.60;;;;;;;8.39;78.96;99648.70;215595;1303;25260;-74
2022/10/09 17:52:45;;;;;;;10.50;4.90;;;;;;;8.28;79.25;99648.76;215530;1277;22478;-74
2022/10/09 17:57:47;;;;;;;9.40;4.70;;;;;;;8.15;79.71;99656.73;215761;1302;22778;-74
2022/10/09 18:02:49;;;;;;;20.40;8.60;;;;;;;8.05;80.12;99660.30;215742;1277;26065;-74
2022/10/09 18:07:51;;;;;;;28.60;13.40;;;;;;;7.99;80.41;99662.54;215837;1279;24272;-74
2022/10/09 18:12:53;;;;;;;26.10;13.00;;;;;;;7.93;80.71;99660.55;215806;1277;24261;-75
2022/10/09 18:17:55;;;;;;;28.50;13.60;;;;;;;7.91;81.18;99656.52;215705;1294;25408;-75
2022/10/09 18:22:57;;;;;;;27.00;12.40;;;;;;;7.92;81.45;99653.91;215737;1287;22565;-73
2022/10/09 18:27:59;;;;;;;24.60;11.60;;;;;;;7.94;81.54;99654.73;215710;1298;22477;-74
2022/10/09 18:33:01;;;;;;;21.30;11.00;;;;;;;7.94;81.52;99652.81;215718;1285;22618;-73
2022/10/09 18:38:03;;;;;;;25.40;11.80;;;;;;;7.92;81.59;99651.77;215763;1277;24205;-74
2022/10/09 18:43:05;;;;;;;17.70;10.70;;;;;;;7.89;81.76;99654.26;215944;1282;22579;-74
2022/10/09 18:48:07;;;;;;;19.10;10.20;;;;;;;7.86;81.81;99656.98;215685;1279;24751;-73
2022/10/09 18:53:10;;;;;;;25.50;12.90;;;;;;;7.84;81.80;99657.73;215675;1277;22622;-73
2022/10/09 18:58:13;;;;;;;31.80;15.60;;;;;;;7.80;82.24;99664.49;215727;1288;22501;-73
2022/10/09 19:03:15;;;;;;;36.00;18.30;;;;;;;7.71;82.43;99665.98;215697;1287;25453;-74
2022/10/09 19:08:17;;;;;;;34.10;16.90;;;;;;;7.59;82.74;99666.25;215763;1285;22514;-74
2022/10/09 19:13:20;;;;;;;37.10;16.60;;;;;;;7.47;83.18;99663.32;215851;1285;25376;-74
2022/10/09 19:18:21;;;;;;;29.50;15.80;;;;;;;7.36;83.60;99664.82;215574;1303;23602;-75
2022/10/09 19:23:23;;;;;;;33.50;18.00;;;;;;;7.26;83.90;99666.21;215699;1280;25389;-74
2022/10/09 19:28:29;;;;;;;42.20;21.80;;;;;;;7.15;84.20;99667.83;215730;1303;25324;-73
2022/10/09 19:33:31;;;;;;;38.10;19.50;;;;;;;7.05;84.69;99664.38;215681;1280;24520;-75
2022/10/09 19:38:33;;;;;;;45.50;19.50;;;;;;;6.98;84.95;99665.80;215783;1287;22486;-76
2022/10/09 19:43:36;;;;;;;33.70;17.30;;;;;;;6.92;85.33;99666.09;215751;1285;22482;-73
2022/10/09 19:48:37;;;;;;;39.30;19.50;;;;;;;6.85;85.78;99666.50;215806;1287;22477;-74
2022/10/09 19:53:41;;;;;;;36.50;19.20;;;;;;;6.78;86.05;99671.39;215600;1282;22481;-74
2022/10/09 19:58:45;;;;;;;29.70;16.20;;;;;;;6.68;86.11;99670.15;215643;1303;24322;-74
2022/10/09 20:03:52;;;;;;;35.60;19.40;;;;;;;6.59;86.30;99671.66;215890;1292;22472;-74
2022/10/09 20:08:54;;;;;;;33.80;19.10;;;;;;;6.54;86.66;99675.25;215851;1303;22543;-74
2022/10/09 20:13:57;;;;;;;30.30;17.20;;;;;;;6.49;86.73;99673.39;215733;1293;22810;-74
2022/10/09 20:19:00;;;;;;;40.20;20.20;;;;;;;6.42;86.87;99673.02;215803;1288;22453;-74
2022/10/09 20:24:02;;;;;;;39.40;21.70;;;;;;;6.33;86.70;99667.74;215816;1280;24849;-74
2022/10/09 20:29:05;;;;;;;37.60;19.50;;;;;;;6.21;86.95;99664.54;215971;1302;25539;-75
2022/10/09 20:34:07;;;;;;;29.00;16.20;;;;;;;6.10;86.82;99659.70;215569;1280;22437;-74
2022/10/09 20:39:12;;;;;;;27.80;15.70;;;;;;;6.05;87.37;99663.13;215795;1302;22616;-75
2022/10/09 20:44:13;;;;;;;25.30;13.20;;;;;;;6.01;87.49;99662.67;215769;1280;25320;-73
2022/10/09 20:49:15;;;;;;;20.40;11.10;;;;;;;5.96;87.63;99667.04;215616;1302;22542;-74
2022/10/09 20:54:20;;;;;;;20.90;10.40;;;;;;;5.99;87.89;99671.46;215710;1280;22528;-74
2022/10/09 20:59:22;;;;;;;23.30;10.60;;;;;;;5.96;87.92;99668.88;215632;1303;22594;-74
2022/10/09 21:04:24;;;;;;;25.20;13.00;;;;;;;5.90;88.04;99659.92;215637;1287;24939;-73
2022/10/09 21:09:26;;;;;;;26.00;12.90;;;;;;;5.85;88.35;99658.50;215505;1280;22954;-74
2022/10/09 21:14:35;;;;;;;27.90;14.30;;;;;;;5.84;88.45;99653.32;215731;1302;24229;-73
2022/10/09 21:19:37;;;;;;;30.40;13.50;;;;;;;5.81;88.42;99651.95;215586;1280;22530;-74
2022/10/09 21:24:38;;;;;;;25.90;13.40;;;;;;;5.76;88.44;99649.98;215533;1280;25304;-74
2022/10/09 21:29:40;;;;;;;25.70;12.60;;;;;;;5.68;88.68;99643.41;215591;1287;22995;-74
2022/10/09 21:34:42;;;;;;;26.80;12.70;;;;;;;5.61;89.09;99639.61;215748;1288;26655;-74
2022/10/09 21:39:44;;;;;;;24.10;11.90;;;;;;;5.57;89.07;99642.39;215496;1282;22508;-73
2022/10/09 21:44:45;;;;;;;24.50;12.50;;;;;;;5.57;89.53;99642.98;215715;1282;22602;-73
2022/10/09 21:49:47;;;;;;;20.10;9.80;;;;;;;5.53;89.30;99638.43;215896;1295;22477;-74
2022/10/09 21:54:49;;;;;;;22.10;10.90;;;;;;;5.50;89.97;99636.08;215688;1277;22492;-74
2022/10/09 21:59:51;;;;;;;20.20;10.10;;;;;;;5.53;89.94;99634.76;215684;1280;22501;-75
2022/10/09 22:04:56;;;;;;;23.20;10.70;;;;;;;5.58;90.09;99633.71;215685;1280;25395;-74
2022/10/09 22:09:57;;;;;;;17.40;10.00;;;;;;;5.58;89.91;99629.30;215592;1302;22473;-73
2022/10/09 22:14:59;;;;;;;19.00;9.20;;;;;;;5.57;90.43;99618.80;215766;1281;25282;-73
2022/10/09 22:20:01;;;;;;;20.70;10.60;;;;;;;5.58;90.30;99620.10;215815;1296;22518;-74
2022/10/09 22:25:03;;;;;;;18.50;9.50;;;;;;;5.58;90.54;99617.07;215864;1280;24247;-76
2022/10/09 22:30:06;;;;;;;16.90;9.30;;;;;;;5.54;90.37;99620.13;215764;1282;23739;-74
2022/10/09 22:35:08;;;;;;;15.20;9.40;;;;;;;5.59;90.74;99621.75;215639;1280;24313;-74
2022/10/09 22:40:09;;;;;;;16.90;9.10;;;;;;;5.56;90.23;99612.88;215652;1302;23741;-74
2022/10/09 22:45:11;;;;;;;15.30;8.00;;;;;;;5.50;90.36;99608.30;215487;1280;22588;-74
2022/10/09 22:50:13;;;;;;;17.80;9.10;;;;;;;5.45;90.56;99608.77;215610;1301;22494;-74
2022/10/09 22:55:15;;;;;;;19.00;8.80;;;;;;;5.36;90.53;99601.98;215735;1293;25318;-74
2022/10/09 23:00:16;;;;;;;17.10;8.30;;;;;;;5.26;90.42;99599.34;215733;1301;22828;-74
2022/10/09 23:05:18;;;;;;;15.60;8.70;;;;;;;5.21;90.71;99593.11;215856;1280;23257;-74
2022/10/09 23:10:20;;;;;;;15.90;8.70;;;;;;;5.17;91.16;99591.10;215751;1302;25325;-74
2022/10/09 23:15:22;;;;;;;16.40;7.00;;;;;;;5.17;91.23;99582.55;215645;1288;22458;-74
2022/10/09 23:20:23;;;;;;;13.70;7.10;;;;;;;5.18;91.26;99585.61;215537;1290;22479;-74
2022/10/09 23:25:25;;;;;;;11.80;6.40;;;;;;;5.13;91.06;99579.52;215678;1287;22620;-75
2022/10/09 23:30:27;;;;;;;13.80;7.20;;;;;;;5.11;91.48;99578.20;215820;1302;22447;-74
2022/10/09 23:35:28;;;;;;;13.10;7.30;;;;;;;5.13;91.47;99568.13;215858;1294;24228;-75
2022/10/09 23:40:30;;;;;;;13.10;7.60;;;;;;;5.12;91.49;99568.48;215757;1302;22472;-73